createdAt,value
2022-11-29T00:01:11.486Z,4.44
2022-11-29T00:03:38.217Z,4.40
2022-11-29T00:06:20.226Z,4.34
2022-11-29T00:08:47.598Z,4.30
2022-11-29T00:11:38.723Z,4.30
2022-11-29T00:14:06.550Z,4.26
2022-11-29T00:16:33.486Z,4.36
2022-11-29T00:19:00.314Z,4.32
2022-11-29T00:21:26.956Z,4.31
2022-11-29T00:23:53.704Z,4.23
2022-11-29T00:26:20.383Z,4.28
2022-11-29T00:28:46.959Z,4.32
2022-11-29T00:31:16.166Z,4.34
2022-11-29T00:33:42.845Z,4.38
2022-11-29T00:36:10.183Z,4.39
2022-11-29T00:38:36.843Z,4.32
2022-11-29T00:41:03.615Z,4.31
2022-11-29T00:43:30.335Z,4.32
2022-11-29T00:45:57.164Z,4.34
2022-11-29T00:48:24.761Z,4.41
2022-11-29T00:50:51.427Z,4.47
2022-11-29T00:53:18.021Z,4.43
2022-11-29T00:55:47.316Z,4.52
2022-11-29T00:58:14.044Z,4.47
2022-11-29T01:00:40.685Z,4.40
2022-11-29T01:03:07.687Z,4.45
2022-11-29T01:05:34.229Z,4.40
2022-11-29T01:08:01.090Z,4.42
2022-11-29T01:10:28.040Z,4.46
2022-11-29T01:12:55.299Z,4.53
2022-11-29T01:15:22.201Z,4.55
2022-11-29T01:17:49.467Z,4.56
2022-11-29T01:20:17.152Z,4.52
2022-11-29T01:22:43.734Z,4.57
2022-11-29T01:25:12.444Z,4.48
2022-11-29T01:27:39.716Z,4.47
2022-11-29T01:30:08.317Z,4.57
2022-11-29T01:32:35.316Z,4.61
2022-11-29T01:35:02.280Z,4.51
2022-11-29T01:37:29.836Z,4.52
2022-11-29T01:39:56.517Z,4.49
2022-11-29T01:42:23.419Z,4.57
2022-11-29T01:44:49.903Z,4.64
2022-11-29T01:47:19.625Z,4.61
2022-11-29T01:49:49.685Z,4.56
2022-11-29T01:52:34.228Z,4.55
2022-11-29T01:55:05.433Z,4.49
2022-11-29T01:57:35.187Z,4.59
2022-11-29T02:00:08.668Z,4.72
2022-11-29T02:02:47.144Z,4.57
2022-11-29T02:05:16.789Z,4.49
2022-11-29T02:07:46.517Z,4.48
2022-11-29T02:10:15.639Z,4.44
2022-11-29T02:13:33.012Z,4.31
2022-11-29T02:16:05.002Z,4.32
2022-11-29T02:19:09.273Z,4.21
2022-11-29T02:21:44.802Z,4.12
2022-11-29T02:24:25.468Z,4.14
2022-11-29T02:27:18.385Z,4.01
2022-11-29T02:29:53.656Z,4.06
2022-11-29T02:32:35.451Z,3.86
2022-11-29T02:35:07.874Z,3.84
2022-11-29T02:38:11.793Z,3.71
2022-11-29T02:41:10.841Z,3.70
2022-11-29T02:43:40.471Z,3.82
2022-11-29T02:46:10.221Z,3.73
2022-11-29T02:48:50.793Z,3.69
2022-11-29T02:51:43.825Z,3.82
2022-11-29T02:54:26.263Z,3.67
2022-11-29T02:57:21.604Z,3.64
2022-11-29T03:00:02.219Z,3.71
2022-11-29T03:02:28.717Z,3.73
2022-11-29T03:04:57.992Z,3.56
2022-11-29T03:07:46.821Z,3.60
2022-11-29T03:10:34.547Z,3.58
2022-11-29T03:13:05.215Z,3.53
2022-11-29T03:15:44.708Z,3.53
2022-11-29T03:18:32.855Z,3.65
2022-11-29T03:21:23.768Z,3.58
2022-11-29T03:23:56.871Z,3.60
2022-11-29T03:26:31.986Z,3.58
2022-11-29T03:29:26.938Z,3.47
2022-11-29T03:32:08.979Z,3.52
2022-11-29T03:35:02.368Z,3.58
2022-11-29T03:37:44.047Z,3.55
2022-11-29T03:40:14.732Z,3.63
2022-11-29T03:42:41.178Z,3.53
2022-11-29T03:45:20.014Z,3.62
2022-11-29T03:47:57.871Z,3.54
2022-11-29T03:50:31.879Z,3.49
2022-11-29T03:53:12.734Z,3.42
2022-11-29T03:56:01.332Z,3.48
2022-11-29T03:58:39.374Z,3.49
2022-11-29T04:01:21.277Z,3.39
2022-11-29T04:04:08.831Z,3.47
2022-11-29T04:07:17.551Z,3.54
2022-11-29T04:10:05.648Z,3.49
2022-11-29T04:12:49.219Z,3.44
2022-11-29T04:15:40.684Z,3.54
2022-11-29T04:18:38.359Z,3.40
2022-11-29T04:21:29.485Z,3.34
2022-11-29T04:24:40.323Z,3.39
2022-11-29T04:27:12.952Z,3.36
2022-11-29T04:30:02.045Z,3.49
2022-11-29T04:33:03.013Z,3.39
2022-11-29T04:35:32.208Z,3.47
2022-11-29T04:38:01.731Z,3.52
2022-11-29T04:40:53.086Z,3.40
2022-11-29T04:43:41.368Z,3.39
2022-11-29T04:46:53.010Z,3.51
2022-11-29T04:49:34.576Z,3.47
2022-11-29T04:52:38.913Z,3.36
2022-11-29T04:55:20.792Z,3.53
2022-11-29T04:58:03.946Z,3.48
2022-11-29T05:00:39.655Z,3.46
2022-11-29T05:03:38.947Z,3.51
2022-11-29T05:06:17.788Z,3.49
2022-11-29T05:09:06.043Z,3.44
2022-11-29T05:11:44.649Z,3.32
2022-11-29T05:14:17.762Z,3.34
2022-11-29T05:16:53.492Z,3.50
2022-11-29T05:19:19.993Z,3.36
2022-11-29T05:22:05.242Z,3.33
2022-11-29T05:24:53.712Z,3.36
2022-11-29T05:27:28.312Z,3.36
2022-11-29T05:30:21.189Z,3.27
2022-11-29T05:32:50.822Z,3.31
2022-11-29T05:35:26.232Z,3.40
2022-11-29T05:37:56.898Z,3.41
2022-11-29T05:40:26.343Z,3.39
2022-11-29T05:43:12.866Z,3.30
2022-11-29T05:45:51.221Z,3.26
2022-11-29T05:48:28.593Z,3.27
2022-11-29T05:51:13.933Z,3.25
2022-11-29T05:53:54.999Z,3.36
2022-11-29T05:56:33.588Z,3.26
2022-11-29T05:59:08.191Z,3.20
2022-11-29T06:01:42.053Z,3.22
2022-11-29T06:04:34.371Z,3.20
2022-11-29T06:07:22.618Z,3.25
2022-11-29T06:10:00.534Z,3.22
2022-11-29T06:12:31.275Z,3.28
2022-11-29T06:15:17.487Z,3.29
2022-11-29T06:18:06.748Z,3.23
2022-11-29T06:20:42.717Z,3.32
2022-11-29T06:23:09.239Z,3.27
2022-11-29T06:26:03.487Z,3.40
2022-11-29T06:29:01.952Z,3.49
2022-11-29T06:31:34.262Z,3.40
2022-11-29T06:34:16.392Z,3.40
2022-11-29T06:36:48.966Z,3.42
2022-11-29T06:39:16.179Z,3.43
2022-11-29T06:41:43.254Z,3.40
2022-11-29T06:44:10.684Z,3.46
2022-11-29T06:46:56.162Z,3.43
2022-11-29T06:49:27.088Z,3.43
2022-11-29T06:51:59.263Z,3.47
2022-11-29T06:54:38.913Z,3.45
2022-11-29T06:57:24.681Z,3.30
2022-11-29T07:00:20.552Z,3.36
2022-11-29T07:03:11.180Z,3.46
2022-11-29T07:05:38.279Z,3.46
2022-11-29T07:08:25.430Z,3.52
2022-11-29T07:10:54.911Z,3.55
2022-11-29T07:13:21.813Z,3.42
2022-11-29T07:15:51.558Z,3.43
2022-11-29T07:18:46.992Z,3.43
2022-11-29T07:21:25.554Z,3.42
2022-11-29T07:24:02.697Z,3.36
2022-11-29T07:26:33.295Z,3.45
2022-11-29T07:28:59.692Z,3.48
2022-11-29T07:31:43.561Z,3.52
2022-11-29T07:34:49.936Z,3.51
2022-11-29T07:38:00.604Z,3.48
2022-11-29T07:40:49.688Z,3.43
2022-11-29T07:43:40.335Z,3.44
2022-11-29T07:46:06.997Z,3.57
2022-11-29T07:48:33.556Z,3.60
2022-11-29T07:51:00.934Z,3.55
2022-11-29T07:53:28.943Z,3.57
2022-11-29T07:55:55.575Z,3.52
2022-11-29T07:58:22.175Z,3.48
2022-11-29T08:00:49.051Z,3.53
2022-11-29T08:03:15.704Z,3.66
2022-11-29T08:05:47.251Z,3.58
2022-11-29T08:08:14.161Z,3.66
2022-11-29T08:10:40.736Z,3.72
2022-11-29T08:13:07.345Z,3.82
2022-11-29T08:15:33.979Z,3.72
2022-11-29T08:18:02.362Z,3.71
2022-11-29T08:20:28.928Z,3.75
2022-11-29T08:22:57.396Z,3.80
2022-11-29T08:25:24.582Z,3.84
2022-11-29T08:27:51.706Z,3.95
2022-11-29T08:30:21.981Z,3.84
2022-11-29T08:32:51.526Z,3.88
2022-11-29T08:35:23.366Z,3.93
2022-11-29T08:37:50.507Z,4.03
2022-11-29T08:40:17.812Z,4.02
2022-11-29T08:42:44.469Z,4.00
2022-11-29T08:45:11.856Z,4.05
2022-11-29T08:47:39.147Z,4.04
2022-11-29T08:50:15.047Z,4.06
2022-11-29T08:53:06.077Z,4.15
2022-11-29T08:55:39.851Z,4.05
2022-11-29T08:58:09.386Z,4.10
2022-11-29T09:00:37.429Z,4.15
2022-11-29T09:03:24.396Z,4.18
2022-11-29T09:05:52.246Z,4.15
2022-11-29T09:08:19.017Z,4.06
2022-11-29T09:10:46.015Z,4.09
2022-11-29T09:13:12.648Z,4.07
2022-11-29T09:15:41.847Z,4.12
2022-11-29T09:18:08.510Z,4.05
2022-11-29T09:20:35.203Z,4.07
2022-11-29T09:23:01.778Z,4.10
2022-11-29T09:25:28.686Z,4.14
2022-11-29T09:27:58.163Z,4.15
2022-11-29T09:30:24.910Z,4.15
2022-11-29T09:32:51.616Z,4.12
2022-11-29T09:35:18.283Z,4.02
2022-11-29T09:37:44.883Z,4.02
2022-11-29T09:40:18.156Z,4.20
2022-11-29T09:42:52.285Z,4.16
2022-11-29T09:45:30.306Z,4.21
2022-11-29T09:48:33.011Z,4.14
2022-11-29T09:51:24.161Z,4.19
2022-11-29T09:53:50.679Z,4.26
2022-11-29T09:56:41.215Z,4.25
2022-11-29T09:59:27.763Z,4.32
2022-11-29T10:02:02.698Z,4.41
2022-11-29T10:04:36.352Z,4.29
2022-11-29T10:07:21.553Z,4.22
2022-11-29T10:09:56.100Z,4.31
2022-11-29T10:12:35.965Z,4.29
2022-11-29T10:15:19.630Z,4.42
2022-11-29T10:17:55.267Z,4.32
2022-11-29T10:20:29.831Z,4.34
2022-11-29T10:23:21.924Z,4.36
2022-11-29T10:25:51.583Z,4.47
2022-11-29T10:28:25.817Z,4.41
2022-11-29T10:30:57.465Z,4.48
2022-11-29T10:33:29.699Z,4.52
2022-11-29T10:35:59.566Z,4.59
2022-11-29T10:38:31.112Z,4.58
2022-11-29T10:41:05.432Z,4.56
2022-11-29T10:43:32.017Z,4.55
2022-11-29T10:45:59.102Z,4.68
2022-11-29T10:48:31.696Z,4.61
2022-11-29T10:50:58.665Z,4.77
2022-11-29T10:53:35.936Z,4.76
2022-11-29T10:56:14.049Z,4.83
2022-11-29T10:59:06.102Z,4.93
2022-11-29T11:01:38.262Z,4.72
2022-11-29T11:04:09.842Z,4.72
2022-11-29T11:06:49.660Z,4.76
2022-11-29T11:09:21.086Z,4.72
2022-11-29T11:11:57.075Z,4.82
2022-11-29T11:14:27.222Z,4.79
2022-11-29T11:16:54.055Z,4.81
2022-11-29T11:19:32.672Z,4.96
2022-11-29T11:22:03.996Z,4.82
2022-11-29T11:24:39.272Z,4.83
2022-11-29T11:27:05.927Z,4.90
2022-11-29T11:29:37.801Z,4.94
2022-11-29T11:32:05.148Z,4.96
2022-11-29T11:34:36.123Z,4.98
2022-11-29T11:37:14.810Z,5.03
2022-11-29T11:39:43.265Z,4.99
2022-11-29T11:42:35.163Z,4.91
2022-11-29T11:45:04.490Z,4.75
2022-11-29T11:47:35.754Z,4.85
2022-11-29T11:50:02.480Z,4.81
2022-11-29T11:52:30.598Z,4.91
2022-11-29T11:55:04.694Z,4.99
2022-11-29T11:57:31.731Z,4.96
2022-11-29T12:00:06.444Z,4.95
2022-11-29T12:02:40.719Z,5.02
2022-11-29T12:05:16.993Z,5.13
2022-11-29T12:10:37.540Z,4.98
2022-11-29T12:13:04.911Z,4.98
2022-11-29T12:15:39.781Z,5.11
2022-11-29T12:18:36.067Z,5.11
2022-11-29T12:21:14.217Z,5.13
2022-11-29T12:23:47.559Z,5.10
2022-11-29T12:26:55.211Z,4.99
2022-11-29T12:29:20.025Z,5.12
2022-11-29T12:32:08.159Z,5.19
2022-11-29T12:34:43.735Z,5.03
2022-11-29T12:37:30.182Z,4.92
2022-11-29T12:40:13.762Z,5.07
2022-11-29T12:43:01.560Z,5.03
2022-11-29T12:45:40.558Z,5.02
2022-11-29T12:48:19.319Z,5.02
2022-11-29T12:51:12.950Z,5.06
2022-11-29T12:54:07.488Z,5.16
2022-11-29T12:57:04.171Z,5.10
2022-11-29T12:59:30.708Z,5.02
2022-11-29T13:02:03.930Z,5.01
2022-11-29T13:04:36.631Z,4.89
2022-11-29T13:07:22.406Z,4.94
2022-11-29T13:10:04.510Z,4.88
2022-11-29T13:12:39.792Z,4.92
2022-11-29T13:15:14.817Z,5.07
2022-11-29T13:17:48.776Z,4.98
2022-11-29T13:20:30.148Z,4.99
2022-11-29T13:23:02.968Z,4.95
2022-11-29T13:25:42.718Z,4.97
2022-11-29T13:28:26.325Z,5.03
2022-11-29T13:30:56.936Z,4.97
2022-11-29T13:33:24.805Z,5.11
2022-11-29T13:36:15.679Z,4.98
2022-11-29T13:38:58.117Z,4.94
2022-11-29T13:41:32.105Z,4.85
2022-11-29T13:44:13.187Z,4.93
2022-11-29T13:46:39.744Z,4.93
2022-11-29T13:49:06.502Z,4.91
2022-11-29T13:51:37.291Z,4.70
2022-11-29T13:54:29.043Z,4.70
2022-11-29T13:57:09.412Z,4.74
2022-11-29T13:59:44.268Z,4.81
2022-11-29T14:02:43.445Z,4.82
2022-11-29T14:05:26.054Z,4.75
2022-11-29T14:08:37.711Z,4.74
2022-11-29T14:11:14.114Z,4.70
2022-11-29T14:14:07.549Z,4.62
2022-11-29T14:16:37.831Z,4.65
2022-11-29T14:19:10.263Z,4.80
2022-11-29T14:22:07.274Z,4.65
2022-11-29T14:24:36.848Z,4.81
2022-11-29T14:27:06.638Z,4.69
2022-11-29T14:29:52.531Z,4.61
2022-11-29T14:32:25.196Z,4.59
2022-11-29T14:35:11.820Z,4.54
2022-11-29T14:38:02.855Z,4.68
2022-11-29T14:40:43.248Z,4.60
2022-11-29T14:43:19.965Z,4.67
2022-11-29T14:45:46.915Z,4.59
2022-11-29T14:48:44.298Z,4.51
2022-11-29T14:51:19.634Z,4.56
2022-11-29T14:53:49.740Z,4.43
2022-11-29T14:56:31.721Z,4.49
2022-11-29T14:59:35.807Z,4.55
2022-11-29T15:02:07.136Z,4.38
2022-11-29T15:04:35.617Z,4.37
2022-11-29T15:07:03.527Z,4.42
2022-11-29T15:09:34.178Z,4.44
2022-11-29T15:12:08.583Z,4.33
2022-11-29T15:14:44.738Z,4.25
2022-11-29T15:17:56.349Z,4.35
2022-11-29T15:20:34.828Z,4.30
2022-11-29T15:23:07.172Z,4.35
2022-11-29T15:25:34.462Z,4.31
2022-11-29T15:28:03.774Z,4.38
2022-11-29T15:30:36.409Z,4.42
2022-11-29T15:33:21.007Z,4.16
2022-11-29T15:35:52.799Z,4.30
2022-11-29T15:38:21.675Z,4.31
2022-11-29T15:40:54.131Z,4.26
2022-11-29T15:43:26.832Z,4.28
2022-11-29T15:45:55.543Z,4.34
2022-11-29T15:48:23.921Z,4.29
2022-11-29T15:50:55.918Z,4.33
2022-11-29T15:53:40.567Z,4.38
2022-11-29T15:56:24.993Z,4.20
2022-11-29T15:58:59.487Z,4.15
2022-11-29T16:01:26.453Z,4.25
2022-11-29T16:03:55.689Z,4.10
2022-11-29T16:06:41.524Z,4.14
2022-11-29T16:09:13.057Z,4.12
2022-11-29T16:11:39.815Z,4.06
2022-11-29T16:14:22.626Z,4.05
2022-11-29T16:16:52.715Z,4.15
2022-11-29T16:19:25.818Z,4.13
2022-11-29T16:22:23.271Z,4.17
2022-11-29T16:25:05.816Z,4.19
2022-11-29T16:27:36.340Z,4.23
2022-11-29T16:30:04.847Z,4.21
2022-11-29T16:32:42.611Z,4.16
2022-11-29T16:35:20.861Z,4.12
2022-11-29T16:37:48.234Z,4.02
2022-11-29T16:40:22.768Z,4.08
2022-11-29T16:43:04.639Z,4.19
2022-11-29T16:45:34.430Z,4.30
2022-11-29T16:48:02.796Z,4.15
2022-11-29T16:50:31.400Z,4.23
2022-11-29T16:53:34.984Z,4.23
2022-11-29T16:56:01.806Z,4.14
2022-11-29T16:58:28.551Z,4.14
2022-11-29T17:00:55.531Z,4.15
2022-11-29T17:03:22.543Z,4.17
2022-11-29T17:05:49.958Z,4.25
2022-11-29T17:08:16.527Z,4.13
2022-11-29T17:10:43.103Z,4.20
2022-11-29T17:13:11.408Z,4.29
2022-11-29T17:15:37.944Z,4.06
2022-11-29T17:18:04.597Z,4.15
2022-11-29T17:20:31.152Z,4.17
2022-11-29T17:22:57.844Z,4.17
2022-11-29T17:25:24.409Z,4.04
2022-11-29T17:27:51.147Z,4.09
2022-11-29T17:30:17.931Z,4.09
2022-11-29T17:32:44.708Z,4.13
2022-11-29T17:35:11.455Z,4.07
2022-11-29T17:37:37.997Z,3.99
2022-11-29T17:40:05.363Z,4.12
2022-11-29T17:42:31.907Z,4.18
2022-11-29T17:44:58.410Z,4.17
2022-11-29T17:47:25.022Z,4.20
2022-11-29T17:49:51.550Z,4.16
2022-11-29T17:52:18.089Z,4.23
2022-11-29T17:54:44.640Z,4.18
2022-11-29T17:57:11.244Z,4.19
2022-11-29T17:59:37.810Z,4.16
2022-11-29T18:02:04.614Z,4.20
2022-11-29T18:04:31.321Z,4.25
2022-11-29T18:06:58.647Z,4.13
2022-11-29T18:09:25.241Z,4.25
2022-11-29T18:11:52.473Z,4.20
2022-11-29T18:14:22.925Z,4.17
2022-11-29T18:16:50.111Z,4.21
2022-11-29T18:19:19.034Z,4.14
2022-11-29T18:21:46.142Z,4.18
2022-11-29T18:24:13.218Z,4.17
2022-11-29T18:26:39.977Z,4.10
2022-11-29T18:29:07.375Z,4.18
2022-11-29T18:31:40.024Z,4.09
2022-11-29T18:34:09.930Z,4.10
2022-11-29T18:36:45.377Z,4.14
2022-11-29T18:39:14.327Z,4.21
2022-11-29T18:41:43.649Z,4.09
2022-11-29T18:44:13.051Z,4.15
2022-11-29T18:46:41.510Z,4.13
2022-11-29T18:49:10.656Z,4.07
2022-11-29T18:51:38.499Z,4.26
2022-11-29T18:54:05.864Z,4.23
2022-11-29T18:56:34.504Z,4.08
2022-11-29T18:59:16.810Z,4.29
2022-11-29T19:01:45.360Z,4.21
2022-11-29T19:04:14.904Z,4.16
2022-11-29T19:06:42.333Z,4.15
2022-11-29T19:09:16.884Z,4.10
2022-11-29T19:11:43.738Z,4.06
2022-11-29T19:14:12.450Z,4.12
2022-11-29T19:16:42.042Z,4.13
2022-11-29T19:19:08.681Z,4.06
2022-11-29T19:21:35.587Z,4.06
2022-11-29T19:24:04.574Z,4.10
2022-11-29T19:26:33.369Z,4.13
2022-11-29T19:29:01.736Z,4.11
2022-11-29T19:31:29.487Z,4.11
2022-11-29T19:33:57.268Z,4.14
2022-11-29T19:36:29.854Z,4.19
2022-11-29T19:38:59.778Z,4.10
2022-11-29T19:41:28.538Z,4.08
2022-11-29T19:44:01.671Z,4.09
2022-11-29T19:46:31.756Z,4.05
2022-11-29T19:48:59.783Z,4.20
2022-11-29T19:51:28.754Z,4.09
2022-11-29T19:53:57.811Z,4.01
2022-11-29T19:56:24.701Z,3.95
2022-11-29T19:58:52.101Z,4.00
2022-11-29T20:01:22.748Z,4.05
2022-11-29T20:03:49.517Z,4.13
2022-11-29T20:06:17.431Z,4.08
2022-11-29T20:08:44.802Z,4.18
2022-11-29T20:11:15.412Z,4.04
2022-11-29T20:13:43.959Z,3.93
2022-11-29T20:16:15.901Z,3.92
2022-11-29T20:18:50.353Z,3.93
2022-11-29T20:21:30.298Z,4.10
2022-11-29T20:23:59.205Z,4.06
2022-11-29T20:26:27.302Z,4.09
2022-11-29T20:28:54.032Z,4.15
2022-11-29T20:31:23.211Z,4.07
2022-11-29T20:33:52.646Z,3.99
2022-11-29T20:36:38.263Z,3.96
2022-11-29T20:39:31.672Z,3.94
2022-11-29T20:42:29.479Z,4.01
2022-11-29T20:45:05.822Z,3.92
2022-11-29T20:47:53.853Z,3.84
2022-11-29T20:50:26.420Z,3.81
2022-11-29T20:53:27.641Z,3.67
2022-11-29T20:55:54.213Z,3.56
2022-11-29T20:58:21.216Z,3.41
2022-11-29T21:00:48.050Z,3.59
2022-11-29T21:03:16.319Z,3.30
2022-11-29T21:05:43.314Z,3.25
2022-11-29T21:08:09.891Z,3.33
2022-11-29T21:10:36.696Z,3.25
2022-11-29T21:13:03.444Z,3.17
2022-11-29T21:15:30.600Z,3.00
2022-11-29T21:17:57.420Z,2.93
2022-11-29T21:20:26.317Z,2.94
2022-11-29T21:23:01.953Z,2.84
2022-11-29T21:25:45.610Z,2.79
2022-11-29T21:28:14.420Z,2.77
2022-11-29T21:30:42.385Z,2.78
2022-11-29T21:33:09.785Z,2.75
2022-11-29T21:35:39.705Z,2.76
2022-11-29T21:38:12.448Z,2.77
2022-11-29T21:40:38.981Z,2.83
2022-11-29T21:43:05.654Z,2.94
2022-11-29T21:45:32.231Z,2.86
2022-11-29T21:48:02.051Z,2.83
2022-11-29T21:50:28.614Z,2.84
2022-11-29T21:52:56.019Z,2.88
2022-11-29T21:55:22.598Z,2.87
2022-11-29T21:57:49.135Z,2.95
2022-11-29T22:00:16.177Z,3.10
2022-11-29T22:02:42.785Z,3.07
2022-11-29T22:05:09.733Z,2.98
2022-11-29T22:07:36.398Z,3.05
2022-11-29T22:10:09.925Z,3.05
2022-11-29T22:12:38.354Z,3.06
2022-11-29T22:15:05.481Z,3.08
2022-11-29T22:17:32.047Z,3.14
2022-11-29T22:19:58.578Z,3.05
2022-11-29T22:22:28.094Z,3.06
2022-11-29T22:24:54.951Z,3.00
2022-11-29T22:27:21.496Z,3.02
2022-11-29T22:29:48.396Z,3.17
2022-11-29T22:32:15.070Z,3.04
2022-11-29T22:34:41.605Z,3.26
2022-11-29T22:37:08.138Z,3.09
2022-11-29T22:39:34.693Z,3.04
2022-11-29T22:42:01.284Z,3.07
2022-11-29T22:44:27.849Z,3.04
2022-11-29T22:46:54.491Z,3.07
2022-11-29T22:49:21.249Z,3.03
2022-11-29T22:51:47.864Z,3.12
2022-11-29T22:54:17.932Z,3.10
2022-11-29T22:56:46.108Z,3.02
2022-11-29T22:59:12.982Z,3.07
2022-11-29T23:01:40.904Z,2.97
2022-11-29T23:04:10.662Z,3.00
2022-11-29T23:06:40.741Z,3.08
2022-11-29T23:09:21.176Z,2.96
2022-11-29T23:11:53.853Z,3.03
2022-11-29T23:14:20.623Z,2.96
2022-11-29T23:16:47.293Z,2.97
2022-11-29T23:19:16.129Z,2.93
2022-11-29T23:21:45.394Z,3.00
2022-11-29T23:24:12.809Z,2.99
2022-11-29T23:26:41.493Z,2.95
2022-11-29T23:29:11.692Z,2.85
2022-11-29T23:31:39.039Z,2.95
2022-11-29T23:34:05.689Z,2.99
2022-11-29T23:36:32.507Z,2.89
2022-11-29T23:38:59.090Z,2.82
2022-11-29T23:41:25.767Z,2.97
2022-11-29T23:43:52.445Z,3.08
2022-11-29T23:46:21.126Z,3.00
2022-11-29T23:48:48.433Z,2.93
2022-11-29T23:51:15.762Z,2.98
2022-11-29T23:53:42.750Z,3.01
2022-11-29T23:56:15.971Z,3.09
2022-11-29T23:58:43.791Z,3.09
